Time;durP1;ratioP1;P1;durP2;ratioP2;P2;SDS_P1;SDS_P2;PMS_P1;PMS_P2;Temp;Humidity;BMP_temperature;BMP_pressure;BME280_temperature;BME280_humidity;BME280_pressure;Samples;Min_cycle;Max_cycle;Signal;HPM_P1;HPM_P2
2022/01/15 00:01:13;;;;;;;107.55;23.30;;;;;;;-0.41;100.00;100893.47;4982455;28;20043;-60
2022/01/15 00:03:39;;;;;;;140.23;24.50;;;;;;;-0.33;100.00;100905.00;4983807;28;20022;-62
2022/01/15 00:06:04;;;;;;;130.45;24.35;;;;;;;-0.39;100.00;100902.09;4983582;28;20056;-60
2022/01/15 00:08:30;;;;;;;124.80;25.73;;;;;;;-0.41;100.00;100886.41;4984200;28;20076;-60
2022/01/15 00:10:55;;;;;;;117.15;24.92;;;;;;;-0.42;100.00;100890.00;4979484;28;20045;-62
2022/01/15 00:13:31;;;;;;;135.73;27.15;;;;;;;-0.41;100.00;100899.56;4981091;28;20030;-62
2022/01/15 00:16:09;;;;;;;147.10;22.40;;;;;;;-0.37;100.00;100897.53;4983735;28;20204;-62
2022/01/15 00:18:44;;;;;;;125.15;21.90;;;;;;;-0.44;100.00;100887.50;4985103;28;20084;-62
2022/01/15 00:21:10;;;;;;;112.32;21.48;;;;;;;-0.46;100.00;100885.94;4978484;28;20042;-62
2022/01/15 00:23:35;;;;;;;131.02;23.75;;;;;;;-0.30;100.00;100880.19;4984593;28;20073;-62
2022/01/15 00:26:01;;;;;;;140.07;24.98;;;;;;;-0.50;100.00;100881.91;4982631;28;20035;-62
2022/01/15 00:28:26;;;;;;;118.90;20.75;;;;;;;-0.61;100.00;100882.00;4984706;28;20076;-62
2022/01/15 00:30:52;;;;;;;101.10;19.92;;;;;;;-0.62;100.00;100888.19;4983446;28;20046;-62
2022/01/15 00:33:17;;;;;;;122.10;22.10;;;;;;;-0.49;100.00;100880.94;4983539;28;20027;-62
2022/01/15 00:35:42;;;;;;;205.30;28.08;;;;;;;-0.51;100.00;100877.59;4983783;28;20436;-62
2022/01/15 00:38:08;;;;;;;95.40;23.52;;;;;;;-0.51;100.00;100877.59;4984214;28;20077;-62
2022/01/15 00:40:33;;;;;;;104.72;27.38;;;;;;;-0.58;100.00;100879.09;4980911;28;20058;-62
2022/01/15 00:42:59;;;;;;;127.10;21.83;;;;;;;-0.68;100.00;100874.59;4984509;28;20110;-62
2022/01/15 00:45:25;;;;;;;89.45;20.45;;;;;;;-0.66;100.00;100875.31;4981181;28;20046;-62
2022/01/15 00:47:51;;;;;;;147.52;22.10;;;;;;;-0.69;100.00;100862.41;4983633;28;20511;-62
2022/01/15 00:50:17;;;;;;;164.32;26.80;;;;;;;-0.57;100.00;100859.72;4982729;28;20030;-62
2022/01/15 00:52:43;;;;;;;211.02;25.33;;;;;;;-0.70;100.00;100854.63;4982942;28;20080;-61
2022/01/15 00:55:10;;;;;;;165.73;22.90;;;;;;;-0.64;100.00;100862.00;4977321;28;20053;-62
2022/01/15 00:57:35;;;;;;;244.32;26.90;;;;;;;-0.66;100.00;100856.88;4984046;28;20145;-62
2022/01/15 01:00:01;;;;;;;164.43;24.40;;;;;;;-0.75;100.00;100862.06;4979127;28;20480;-62
2022/01/15 01:02:26;;;;;;;142.05;23.23;;;;;;;-0.76;100.00;100855.16;4984095;28;20077;-61
2022/01/15 01:04:52;;;;;;;233.20;27.48;;;;;;;-0.77;100.00;100864.84;4980144;28;20069;-62
2022/01/15 01:07:17;;;;;;;219.38;25.70;;;;;;;-0.75;100.00;100862.94;4980517;28;20043;-62
2022/01/15 01:20:24;;;;;;;240.68;26.60;;;;;;;-0.74;100.00;100842.69;4976269;28;20045;-62
2022/01/15 01:25:20;;;;;;;286.75;24.45;;;;;;;-0.77;100.00;100832.44;4979352;28;20034;-62
2022/01/15 01:27:49;;;;;;;218.23;25.90;;;;;;;-0.74;100.00;100848.78;4979753;28;20045;-60
2022/01/15 01:30:25;;;;;;;324.85;27.33;;;;;;;-0.76;100.00;100842.81;4976965;28;20037;-61
2022/01/15 01:33:18;;;;;;;271.42;24.95;;;;;;;-0.85;100.00;100851.47;4978743;28;20030;-62
2022/01/15 01:35:48;;;;;;;256.98;26.23;;;;;;;-0.88;100.00;100857.00;4982088;28;20429;-61
2022/01/15 01:38:37;;;;;;;363.35;27.70;;;;;;;-0.85;100.00;100846.22;4981566;28;20011;-62
2022/01/15 01:41:02;;;;;;;378.30;29.48;;;;;;;-0.89;100.00;100845.66;4974710;28;20217;-62
2022/01/15 01:48:40;;;;;;;427.88;30.85;;;;;;;-0.80;100.00;100854.59;4983140;28;20056;-62
2022/01/15 01:51:09;;;;;;;259.63;29.85;;;;;;;-0.80;100.00;100853.72;4981850;28;20050;-60
2022/01/15 01:53:34;;;;;;;312.48;28.45;;;;;;;-0.88;100.00;100852.56;4997307;28;20049;-60
2022/01/15 01:56:00;;;;;;;220.80;24.80;;;;;;;-0.86;100.00;100860.34;4981942;28;20887;-61
2022/01/15 01:58:25;;;;;;;205.13;23.52;;;;;;;-0.97;100.00;100857.78;4978097;28;20057;-61
2022/01/15 02:00:50;;;;;;;239.02;26.45;;;;;;;-0.86;100.00;100844.56;4979470;28;20519;-61
2022/01/15 02:03:16;;;;;;;323.00;26.42;;;;;;;-0.68;100.00;100842.16;4981642;28;20034;-62
2022/01/15 02:05:41;;;;;;;174.35;24.08;;;;;;;-0.92;100.00;100851.19;4981276;28;20515;-62
2022/01/15 02:08:07;;;;;;;286.98;24.50;;;;;;;-0.97;100.00;100853.34;4980125;28;20027;-62
2022/01/15 02:10:32;;;;;;;423.20;29.08;;;;;;;-0.95;100.00;100846.16;4981510;28;20053;-62
2022/01/15 02:13:00;;;;;;;379.70;28.60;;;;;;;-0.96;100.00;100838.41;4980497;28;20389;-62
2022/01/15 02:15:27;;;;;;;421.77;29.77;;;;;;;-0.97;100.00;100839.38;4980367;28;20046;-62
2022/01/15 02:17:52;;;;;;;316.38;25.23;;;;;;;-0.99;100.00;100838.66;4983533;28;20229;-62
2022/01/15 02:25:43;;;;;;;162.85;25.98;;;;;;;-1.10;100.00;100823.75;4972239;28;20515;-62
2022/01/15 02:28:08;;;;;;;123.60;24.48;;;;;;;-1.15;100.00;100829.41;4983814;28;20041;-61
2022/01/15 02:30:34;;;;;;;126.15;23.77;;;;;;;-1.13;100.00;100827.47;4996267;28;20034;-61
2022/01/15 02:32:59;;;;;;;129.90;24.35;;;;;;;-1.15;100.00;100821.53;4981412;28;20140;-61
2022/01/15 02:35:25;;;;;;;148.48;24.25;;;;;;;-1.17;100.00;100822.59;4981336;28;20051;-61
2022/01/15 02:37:50;;;;;;;128.95;21.90;;;;;;;-1.17;100.00;100826.06;4980666;28;20034;-61
2022/01/15 02:40:15;;;;;;;155.48;23.73;;;;;;;-1.16;100.00;100821.63;4980717;28;20097;-61
2022/01/15 02:42:41;;;;;;;125.95;21.27;;;;;;;-1.19;100.00;100833.25;4980755;28;20046;-62
2022/01/15 02:45:08;;;;;;;113.80;23.40;;;;;;;-1.19;100.00;100822.72;4980042;28;20038;-62
2022/01/15 02:50:20;;;;;;;113.43;20.88;;;;;;;-1.22;100.00;100817.72;4978059;28;20041;-62
2022/01/15 02:52:45;;;;;;;117.18;23.27;;;;;;;-1.16;100.00;100829.53;4981099;28;20108;-60
2022/01/15 02:55:11;;;;;;;146.32;24.75;;;;;;;-1.17;100.00;100820.81;4974085;28;20382;-60
2022/01/15 02:57:36;;;;;;;156.27;23.40;;;;;;;-1.21;100.00;100823.81;4982495;28;20030;-61
2022/01/15 03:00:03;;;;;;;141.02;21.60;;;;;;;-1.23;100.00;100816.03;4978594;28;20042;-61
2022/01/15 03:02:31;;;;;;;271.33;27.42;;;;;;;-1.16;100.00;100819.81;4977614;28;20038;-61
2022/01/15 03:04:57;;;;;;;144.23;23.98;;;;;;;-1.18;100.00;100813.84;4982168;28;20484;-61
2022/01/15 03:07:22;;;;;;;161.05;26.02;;;;;;;-1.21;100.00;100824.66;4971074;28;20046;-60
2022/01/15 03:09:48;;;;;;;313.15;31.30;;;;;;;-1.25;100.00;100812.69;4978278;28;20030;-60
2022/01/15 03:12:13;;;;;;;215.55;27.20;;;;;;;-1.28;100.00;100810.31;4982737;28;20030;-60
2022/01/15 03:14:39;;;;;;;198.05;27.25;;;;;;;-1.21;100.00;100811.50;4978081;28;20042;-60
2022/01/15 03:17:04;;;;;;;183.40;24.77;;;;;;;-1.14;100.00;100804.75;4981538;28;20093;-60
2022/01/15 03:19:29;;;;;;;164.45;26.85;;;;;;;-1.35;100.00;100799.50;4980322;28;20705;-60
2022/01/15 03:21:56;;;;;;;165.38;23.67;;;;;;;-1.24;100.00;100797.75;4977409;28;20404;-60
2022/01/15 03:24:21;;;;;;;184.15;25.77;;;;;;;-1.31;100.00;100810.59;4975793;28;20073;-60
2022/01/15 03:26:46;;;;;;;200.75;27.05;;;;;;;-0.96;100.00;100806.81;4981913;28;20046;-60
2022/01/15 03:29:12;;;;;;;172.20;21.33;;;;;;;-1.14;100.00;100802.13;4982742;28;20085;-60
2022/01/15 03:31:37;;;;;;;207.88;25.90;;;;;;;-1.06;100.00;100796.22;4983131;28;20446;-60
2022/01/15 03:34:02;;;;;;;189.18;24.38;;;;;;;-0.96;100.00;100796.28;5000969;28;20645;-60
2022/01/15 03:36:28;;;;;;;249.43;27.20;;;;;;;-1.17;100.00;100794.50;4982223;28;20538;-60
2022/01/15 03:38:53;;;;;;;160.90;26.48;;;;;;;-1.15;100.00;100803.09;4984214;28;20480;-60
2022/01/15 03:41:19;;;;;;;249.48;36.60;;;;;;;-1.06;100.00;100788.31;4983805;28;20042;-61
2022/01/15 03:43:44;;;;;;;145.15;26.33;;;;;;;-1.09;100.00;100780.69;4985266;28;20100;-61
2022/01/15 03:46:10;;;;;;;158.68;29.23;;;;;;;-1.14;100.00;100783.69;4980824;28;20058;-61
2022/01/15 03:48:35;;;;;;;118.03;27.92;;;;;;;-1.22;100.00;100786.16;5000581;28;20058;-61
2022/01/15 03:51:02;;;;;;;100.22;23.63;;;;;;;-1.34;100.00;100792.44;4980224;28;20039;-61
2022/01/15 03:53:28;;;;;;;74.47;17.83;;;;;;;-1.46;100.00;100782.91;4985386;28;20105;-61
2022/01/15 03:55:53;;;;;;;77.00;19.20;;;;;;;-1.47;100.00;100791.75;4983139;28;20073;-60
2022/01/15 03:58:19;;;;;;;88.20;21.83;;;;;;;-1.43;100.00;100787.91;4984019;28;20073;-61
2022/01/15 04:00:44;;;;;;;104.90;26.52;;;;;;;-1.50;100.00;100778.88;4986033;28;20579;-60
2022/01/15 04:03:10;;;;;;;80.47;20.65;;;;;;;-1.53;100.00;100769.44;5000160;28;20089;-61
2022/01/15 04:05:35;;;;;;;101.03;28.08;;;;;;;-1.51;100.00;100770.16;4980897;28;20104;-61
2022/01/15 04:08:00;;;;;;;80.85;23.40;;;;;;;-1.50;100.00;100768.34;4982996;28;20069;-60
2022/01/15 04:10:26;;;;;;;64.05;17.92;;;;;;;-1.54;100.00;100770.41;4980039;28;20484;-60
2022/01/15 04:12:52;;;;;;;63.42;17.50;;;;;;;-1.63;100.00;100766.72;4985434;28;20445;-60
2022/01/15 04:15:18;;;;;;;53.70;15.60;;;;;;;-1.60;100.00;100770.91;4984549;28;20045;-60
2022/01/15 04:17:44;;;;;;;59.78;16.73;;;;;;;-1.54;100.00;100773.88;4981495;28;20065;-60
2022/01/15 04:20:10;;;;;;;45.47;16.17;;;;;;;-1.54;100.00;100765.97;4984130;28;20089;-60
2022/01/15 04:22:36;;;;;;;50.88;16.70;;;;;;;-1.72;100.00;100767.50;4978854;28;20180;-60
2022/01/15 04:25:01;;;;;;;53.42;18.30;;;;;;;-1.70;100.00;100770.81;4981575;28;20042;-62
2022/01/15 04:27:27;;;;;;;38.15;16.17;;;;;;;-1.79;100.00;100767.16;4984129;28;20062;-60
2022/01/15 04:29:55;;;;;;;63.80;21.83;;;;;;;-1.87;100.00;100768.72;4985146;28;20030;-60
2022/01/15 04:32:20;;;;;;;43.25;14.82;;;;;;;-1.80;100.00;100767.25;4984431;28;20054;-60
2022/01/15 04:34:47;;;;;;;38.15;14.00;;;;;;;-1.76;100.00;100773.94;4982948;28;20026;-60
2022/01/15 04:37:17;;;;;;;49.17;16.80;;;;;;;-1.66;100.00;100766.97;4983991;28;20046;-61
2022/01/15 04:39:43;;;;;;;29.93;12.80;;;;;;;-1.75;100.00;100767.72;4977413;28;20038;-60
2022/01/15 04:42:09;;;;;;;51.25;16.20;;;;;;;-1.69;100.00;100764.59;4982269;28;20300;-60
2022/01/15 04:44:35;;;;;;;51.45;17.80;;;;;;;-1.82;100.00;100756.03;4982762;28;20038;-60
2022/01/15 04:47:03;;;;;;;42.08;16.85;;;;;;;-1.83;100.00;100759.63;4983989;28;20081;-60
2022/01/15 04:49:28;;;;;;;49.80;15.43;;;;;;;-1.69;100.00;100764.59;4983927;28;20054;-60
2022/01/15 04:51:54;;;;;;;39.58;15.48;;;;;;;-1.75;100.00;100751.94;4983747;28;20496;-60
2022/01/15 04:54:19;;;;;;;50.15;16.73;;;;;;;-1.53;100.00;100751.84;4984039;28;20038;-60
2022/01/15 04:56:44;;;;;;;53.13;19.13;;;;;;;-1.71;100.00;100749.91;4984305;28;20046;-60
2022/01/15 04:59:10;;;;;;;39.10;12.57;;;;;;;-1.74;100.00;100751.00;4981510;28;20649;-61
2022/01/15 05:01:36;;;;;;;38.80;13.98;;;;;;;-1.58;100.00;100754.03;4981755;28;20054;-60
2022/01/15 05:04:01;;;;;;;30.02;12.23;;;;;;;-1.77;100.00;100751.28;4984550;28;20420;-60
2022/01/15 05:06:27;;;;;;;57.33;18.63;;;;;;;-1.76;100.00;100756.38;4980307;28;20139;-61
2022/01/15 05:09:02;;;;;;;40.85;15.30;;;;;;;-1.71;100.00;100742.88;4983198;28;20072;-60
2022/01/15 05:11:31;;;;;;;46.60;15.60;;;;;;;-1.57;100.00;100747.81;4981288;28;20046;-60
2022/01/15 05:13:57;;;;;;;47.13;16.15;;;;;;;-1.73;100.00;100750.88;4967756;28;20043;-60
2022/01/15 05:16:22;;;;;;;36.65;12.77;;;;;;;-1.73;100.00;100745.59;4981526;28;20042;-60
2022/01/15 05:18:48;;;;;;;16.65;7.68;;;;;;;-1.77;100.00;100749.47;4980330;28;20041;-60
2022/01/15 05:21:13;;;;;;;28.80;10.70;;;;;;;-1.76;100.00;100747.66;4976222;28;20051;-60
2022/01/15 05:23:38;;;;;;;28.25;10.45;;;;;;;-1.69;100.00;100746.22;4980103;28;20074;-60
2022/01/15 05:26:04;;;;;;;17.58;8.50;;;;;;;-1.74;100.00;100748.38;4981018;28;20049;-60
2022/01/15 05:28:29;;;;;;;22.25;9.93;;;;;;;-1.78;100.00;100739.88;4980598;28;20026;-61
2022/01/15 05:30:55;;;;;;;23.30;9.50;;;;;;;-1.79;100.00;100740.03;4974322;28;20065;-60
2022/01/15 05:33:20;;;;;;;27.05;9.15;;;;;;;-1.74;100.00;100733.44;4980977;28;20773;-60
2022/01/15 05:35:45;;;;;;;23.00;9.27;;;;;;;-1.79;100.00;100729.53;4982813;28;20145;-60
2022/01/15 05:38:11;;;;;;;26.48;11.27;;;;;;;-1.77;100.00;100723.19;4983488;28;20118;-60
2022/01/15 05:40:36;;;;;;;27.75;11.60;;;;;;;-1.81;100.00;100732.25;4982610;28;20404;-60
2022/01/15 05:43:02;;;;;;;23.27;10.02;;;;;;;-1.73;100.00;100734.25;4979734;28;20038;-60
2022/01/15 05:45:28;;;;;;;25.95;10.55;;;;;;;-1.63;100.00;100734.34;4979582;28;20369;-60
2022/01/15 05:47:54;;;;;;;26.75;9.82;;;;;;;-1.66;100.00;100730.16;4979616;28;20607;-61
2022/01/15 05:50:19;;;;;;;25.02;10.88;;;;;;;-1.72;100.00;100730.69;4983441;28;20046;-61
2022/01/15 05:52:45;;;;;;;20.38;9.85;;;;;;;-1.51;100.00;100735.97;4982851;28;20038;-61
2022/01/15 05:55:10;;;;;;;23.13;9.90;;;;;;;-1.60;100.00;100734.94;4963588;28;20097;-61
2022/01/15 05:57:36;;;;;;;23.88;10.13;;;;;;;-1.55;100.00;100732.75;4978626;28;20120;-61
2022/01/15 06:00:01;;;;;;;22.42;10.18;;;;;;;-1.56;100.00;100730.25;4982821;28;20544;-61
2022/01/15 06:02:26;;;;;;;22.60;9.60;;;;;;;-1.54;100.00;100726.53;4973851;28;20030;-60
2022/01/15 06:04:52;;;;;;;22.42;9.82;;;;;;;-1.48;100.00;100727.81;4979258;28;20027;-60
2022/01/15 06:07:17;;;;;;;22.92;10.75;;;;;;;-1.46;100.00;100725.88;4981713;28;20527;-60
2022/01/15 06:09:43;;;;;;;19.98;10.35;;;;;;;-1.42;100.00;100723.81;4976038;28;20427;-61
2022/01/15 06:12:09;;;;;;;31.60;11.98;;;;;;;-1.41;100.00;100725.50;4982664;28;20047;-62
2022/01/15 06:14:35;;;;;;;28.02;10.68;;;;;;;-1.32;100.00;100730.00;4978342;28;20599;-62
2022/01/15 06:17:00;;;;;;;30.77;12.30;;;;;;;-1.32;100.00;100722.94;4977425;28;20051;-62
2022/01/15 06:19:26;;;;;;;30.92;12.38;;;;;;;-1.40;100.00;100725.41;4969460;28;20053;-62
2022/01/15 06:21:52;;;;;;;27.55;12.45;;;;;;;-1.38;100.00;100719.97;4977101;28;20034;-62
2022/01/15 06:24:17;;;;;;;31.90;12.98;;;;;;;-1.37;100.00;100714.59;4981888;28;20126;-62
2022/01/15 06:26:43;;;;;;;37.17;12.98;;;;;;;-1.35;100.00;100717.09;4980719;28;20046;-62
2022/01/15 06:29:08;;;;;;;32.97;13.00;;;;;;;-1.32;100.00;100719.50;4978159;28;20046;-62
2022/01/15 06:31:34;;;;;;;31.98;13.55;;;;;;;-1.13;100.00;100716.13;4980448;28;20496;-62
2022/01/15 06:33:59;;;;;;;39.38;15.00;;;;;;;-1.24;100.00;100710.94;4981060;28;20038;-61
2022/01/15 06:36:25;;;;;;;31.65;13.35;;;;;;;-1.49;100.00;100714.81;4972552;28;20126;-62
2022/01/15 06:38:50;;;;;;;38.88;14.05;;;;;;;-1.41;100.00;100717.63;4980000;28;20037;-61
2022/01/15 06:41:16;;;;;;;32.67;14.60;;;;;;;-1.17;100.00;100712.09;4979949;28;20046;-62
2022/01/15 06:43:41;;;;;;;42.00;15.00;;;;;;;-1.27;100.00;100713.81;4991783;28;20034;-62
2022/01/15 06:46:07;;;;;;;32.22;13.55;;;;;;;-1.29;100.00;100705.25;4979977;28;20105;-62
2022/01/15 06:48:32;;;;;;;38.08;14.93;;;;;;;-1.38;100.00;100707.66;4979178;28;20480;-62
2022/01/15 06:50:58;;;;;;;37.45;14.50;;;;;;;-1.52;100.00;100706.19;4979735;28;20489;-61
2022/01/15 06:53:23;;;;;;;27.45;11.13;;;;;;;-1.50;100.00;100710.50;4978746;28;20065;-61
2022/01/15 06:55:51;;;;;;;31.02;12.52;;;;;;;-1.56;100.00;100715.31;4974294;28;20065;-61
2022/01/15 06:58:17;;;;;;;29.83;13.10;;;;;;;-1.54;100.00;100708.13;4978118;28;20124;-62
2022/01/15 07:00:42;;;;;;;29.75;11.77;;;;;;;-1.45;100.00;100700.41;4970420;28;20119;-62
2022/01/15 07:03:08;;;;;;;28.13;11.95;;;;;;;-1.50;100.00;100705.22;4962595;28;20118;-61
2022/01/15 07:05:33;;;;;;;30.85;12.20;;;;;;;-1.49;100.00;100709.53;4959736;28;20042;-62
2022/01/15 07:07:59;;;;;;;29.38;12.38;;;;;;;-1.42;100.00;100708.03;4983167;28;20037;-61
2022/01/15 07:10:24;;;;;;;22.15;10.27;;;;;;;-1.48;100.00;100713.84;4980216;28;20447;-62
2022/01/15 07:12:50;;;;;;;21.20;9.98;;;;;;;-1.54;100.00;100708.13;4964194;28;20023;-62
2022/01/15 07:15:16;;;;;;;23.67;10.95;;;;;;;-1.45;100.00;100710.94;4964510;28;20385;-62
2022/01/15 07:17:44;;;;;;;30.83;10.80;;;;;;;-1.50;100.00;100705.22;4965933;28;20034;-61
2022/01/15 07:20:11;;;;;;;31.63;11.25;;;;;;;-1.47;100.00;100704.97;4965978;28;20034;-62
2022/01/15 07:22:37;;;;;;;23.33;10.70;;;;;;;-1.51;100.00;100696.50;4983753;28;20185;-61
2022/01/15 07:25:03;;;;;;;20.80;10.45;;;;;;;-1.60;100.00;100702.53;4994021;28;20039;-62
2022/01/15 07:27:28;;;;;;;27.67;11.98;;;;;;;-1.59;100.00;100697.16;4983290;28;20049;-61
2022/01/15 07:29:54;;;;;;;37.38;14.13;;;;;;;-1.64;100.00;100701.13;4997141;28;20492;-61
2022/01/15 07:32:19;;;;;;;47.85;18.70;;;;;;;-1.68;100.00;100695.28;4985740;28;20112;-61
2022/01/15 07:34:45;;;;;;;29.15;11.30;;;;;;;-1.73;100.00;100681.69;4984419;28;20034;-62
2022/01/15 07:37:10;;;;;;;31.98;11.90;;;;;;;-1.64;100.00;100686.19;4983597;28;20042;-62
2022/01/15 07:39:36;;;;;;;24.15;10.95;;;;;;;-1.53;100.00;100678.22;4978867;28;20080;-62
2022/01/15 07:42:02;;;;;;;23.25;11.27;;;;;;;-1.52;100.00;100674.66;4981320;28;20039;-61
2022/01/15 07:44:27;;;;;;;33.65;13.55;;;;;;;-1.19;100.00;100683.28;4981475;28;20467;-62
2022/01/15 07:46:54;;;;;;;29.27;11.95;;;;;;;-1.37;100.00;100683.03;4984632;28;20061;-62
2022/01/15 07:49:20;;;;;;;30.77;12.05;;;;;;;-1.45;100.00;100679.38;4982752;28;20101;-61
2022/01/15 07:51:45;;;;;;;25.17;10.27;;;;;;;-1.39;100.00;100678.88;4978703;28;20038;-62
2022/01/15 07:54:11;;;;;;;29.77;11.07;;;;;;;-1.40;100.00;100691.19;4972251;28;20035;-62
2022/01/15 07:56:36;;;;;;;22.77;9.63;;;;;;;-1.35;100.00;100693.41;4983069;28;20041;-62
2022/01/15 07:59:02;;;;;;;23.77;10.48;;;;;;;-1.48;100.00;100690.16;4983128;28;20026;-62
2022/01/15 08:01:28;;;;;;;27.60;9.52;;;;;;;-1.50;100.00;100686.81;4983508;28;20180;-62
2022/01/15 08:03:53;;;;;;;32.08;11.93;;;;;;;-1.32;100.00;100688.75;4982828;28;20027;-62
2022/01/15 08:06:19;;;;;;;29.55;11.98;;;;;;;-1.37;100.00;100690.09;4983887;28;20042;-62
2022/01/15 08:08:44;;;;;;;25.20;10.32;;;;;;;-1.40;100.00;100682.44;4983782;28;20034;-62
2022/01/15 08:11:10;;;;;;;20.98;9.88;;;;;;;-1.48;100.00;100688.34;4979147;28;20058;-62
2022/01/15 08:13:35;;;;;;;18.27;8.43;;;;;;;-1.38;100.00;100680.53;4984363;28;20026;-62
2022/01/15 08:16:04;;;;;;;20.95;10.93;;;;;;;-1.44;100.00;100679.25;4981594;28;20050;-63
2022/01/15 08:18:31;;;;;;;22.05;10.88;;;;;;;-1.31;100.00;100681.69;4982296;28;20150;-62
2022/01/15 08:20:57;;;;;;;26.13;11.70;;;;;;;-1.23;100.00;100673.97;4980887;28;20353;-62
2022/01/15 08:23:22;;;;;;;22.40;10.63;;;;;;;-1.29;100.00;100673.69;4981730;28;20026;-62
2022/01/15 08:25:48;;;;;;;23.65;9.70;;;;;;;-1.35;100.00;100675.88;4982278;28;20910;-62
2022/01/15 08:28:14;;;;;;;22.13;10.32;;;;;;;-1.28;100.00;100676.16;4978509;28;20388;-62
2022/01/15 08:30:40;;;;;;;17.63;7.88;;;;;;;-1.33;100.00;100678.34;4971635;28;20073;-62
2022/01/15 08:33:06;;;;;;;23.35;10.52;;;;;;;-1.19;100.00;100672.75;4974850;28;20045;-62
2022/01/15 08:35:31;;;;;;;22.23;11.30;;;;;;;-1.10;100.00;100682.50;4974676;28;20042;-62
2022/01/15 08:37:59;;;;;;;22.40;11.13;;;;;;;-1.13;100.00;100674.84;4979140;28;20046;-62
2022/01/15 08:40:25;;;;;;;18.15;8.85;;;;;;;-1.09;100.00;100681.53;4978989;28;20047;-62
2022/01/15 08:42:50;;;;;;;19.92;10.25;;;;;;;-1.15;100.00;100676.78;4980518;28;20507;-62
2022/01/15 08:45:16;;;;;;;17.48;7.30;;;;;;;-1.23;100.00;100673.13;4982195;28;20045;-62
2022/01/15 08:47:41;;;;;;;16.00;8.25;;;;;;;-1.21;100.00;100671.22;4981996;28;20034;-62
2022/01/15 08:50:08;;;;;;;19.63;7.82;;;;;;;-1.14;100.00;100677.63;4982636;28;20117;-62
2022/01/15 08:52:34;;;;;;;19.42;9.40;;;;;;;-1.06;100.00;100677.78;4984531;28;20034;-63
2022/01/15 08:55:00;;;;;;;24.42;10.77;;;;;;;-1.01;100.00;100677.41;4979190;28;20042;-62
2022/01/15 08:57:26;;;;;;;21.50;10.23;;;;;;;-0.88;100.00;100668.28;4981603;28;20055;-62
2022/01/15 08:59:51;;;;;;;23.98;11.55;;;;;;;-0.87;100.00;100674.41;4978671;28;20493;-61
2022/01/15 09:02:17;;;;;;;21.02;10.65;;;;;;;-0.87;100.00;100675.25;4979265;28;20480;-61
2022/01/15 09:04:43;;;;;;;24.13;8.55;;;;;;;-0.97;100.00;100671.75;4980559;28;20036;-61
2022/01/15 09:07:10;;;;;;;29.83;12.90;;;;;;;-0.88;100.00;100673.56;4984128;28;20441;-61
2022/01/15 09:09:35;;;;;;;30.38;12.35;;;;;;;-0.76;100.00;100676.94;4978737;28;20042;-61
2022/01/15 09:12:01;;;;;;;28.45;12.73;;;;;;;-0.80;100.00;100672.06;4981542;28;20416;-60
2022/01/15 09:14:26;;;;;;;30.35;13.85;;;;;;;-0.76;100.00;100669.03;4982900;28;20061;-62
2022/01/15 09:16:55;;;;;;;24.67;9.88;;;;;;;-0.70;100.00;100676.41;4974742;28;20051;-62
2022/01/15 09:19:20;;;;;;;19.25;9.55;;;;;;;-0.71;100.00;100666.84;4982632;28;20103;-62
2022/01/15 09:21:47;;;;;;;22.08;10.35;;;;;;;-0.64;100.00;100663.69;4982174;28;20539;-62
2022/01/15 09:24:12;;;;;;;23.63;11.20;;;;;;;-0.50;100.00;100664.13;4981558;28;20046;-63
2022/01/15 09:26:59;;;;;;;22.73;10.02;;;;;;;-0.55;100.00;100662.84;4982245;28;20480;-62
2022/01/15 09:32:08;;;;;;;22.67;10.00;;;;;;;-0.62;100.00;100656.44;4982465;28;20077;-61
2022/01/15 09:34:34;;;;;;;20.13;10.10;;;;;;;-0.56;100.00;100655.94;4981871;28;20491;-61
2022/01/15 09:37:00;;;;;;;25.25;10.88;;;;;;;-0.50;100.00;100650.97;4976741;28;20445;-61
2022/01/15 09:39:26;;;;;;;24.70;9.50;;;;;;;-0.48;100.00;100642.91;4972566;28;20089;-62
2022/01/15 09:41:54;;;;;;;17.52;8.13;;;;;;;-0.61;100.00;100652.88;4973664;28;20042;-62
2022/01/15 09:44:20;;;;;;;26.13;10.80;;;;;;;-0.71;100.00;100643.13;4978600;28;20412;-61
2022/01/15 09:46:45;;;;;;;21.77;9.43;;;;;;;-0.64;100.00;100648.69;4982438;28;20038;-61
2022/01/15 09:49:14;;;;;;;21.13;10.27;;;;;;;-0.56;100.00;100643.59;4983502;28;20579;-62
2022/01/15 09:51:39;;;;;;;23.23;10.50;;;;;;;-0.29;100.00;100644.75;4982543;28;20050;-61
2022/01/15 09:54:05;;;;;;;23.52;11.15;;;;;;;-0.47;100.00;100637.50;4980782;28;20088;-63
2022/01/15 09:56:30;;;;;;;28.48;13.02;;;;;;;-0.57;100.00;100641.09;4982310;28;20400;-63
2022/01/15 09:58:58;;;;;;;19.48;9.73;;;;;;;-0.30;100.00;100635.16;4995064;28;20479;-62
2022/01/15 10:01:23;;;;;;;24.40;11.60;;;;;;;-0.26;100.00;100636.56;4980421;28;20501;-62
2022/01/15 10:03:49;;;;;;;20.60;10.32;;;;;;;-0.19;100.00;100637.66;4996821;28;20034;-63
2022/01/15 10:06:14;;;;;;;25.58;11.63;;;;;;;-0.14;100.00;100637.25;4978230;28;20480;-62
2022/01/15 10:08:40;;;;;;;20.40;10.05;;;;;;;-0.17;100.00;100634.91;4972542;28;20026;-62
2022/01/15 10:11:11;;;;;;;17.63;10.13;;;;;;;-0.46;100.00;100630.44;4980728;28;20351;-62
2022/01/15 10:13:43;;;;;;;;;;;;;;;-0.36;100.00;100630.44;4982898;28;20772;-62
2022/01/15 10:16:08;;;;;;;15.18;8.02;;;;;;;-0.42;100.00;100629.19;4979442;28;20229;-62
2022/01/15 10:18:35;;;;;;;19.23;10.88;;;;;;;-0.34;100.00;100628.50;4979454;28;20065;-62
2022/01/15 10:21:17;;;;;;;16.52;9.45;;;;;;;-0.33;100.00;100623.09;4975627;28;20059;-62
2022/01/15 10:23:46;;;;;;;15.68;8.32;;;;;;;-0.16;100.00;100628.66;4981304;28;20048;-62
2022/01/15 10:26:13;;;;;;;14.55;7.55;;;;;;;-0.23;100.00;100629.19;4976367;28;20050;-62
2022/01/15 10:29:01;;;;;;;13.18;7.78;;;;;;;-0.39;100.00;100625.47;4973668;28;20092;-62
2022/01/15 10:31:41;;;;;;;10.52;6.10;;;;;;;-0.43;100.00;100632.78;4980956;28;20441;-64
2022/01/15 10:34:29;;;;;;;17.17;7.63;;;;;;;-0.26;100.00;100626.00;4962720;28;20105;-62
2022/01/15 10:37:08;;;;;;;13.55;8.40;;;;;;;-0.07;100.00;100618.13;4976361;28;20050;-62
2022/01/15 10:39:34;;;;;;;14.40;8.23;;;;;;;0.02;100.00;100621.69;4979862;28;20485;-62
2022/01/15 10:41:59;;;;;;;14.65;8.30;;;;;;;-0.12;100.00;100612.44;4976995;28;20050;-62
2022/01/15 10:44:35;;;;;;;19.17;9.40;;;;;;;-0.03;100.00;100621.28;4975629;28;20022;-62
2022/01/15 10:47:12;;;;;;;15.95;8.98;;;;;;;-0.07;100.00;100612.00;4971878;28;20055;-61
2022/01/15 10:49:39;;;;;;;15.18;8.88;;;;;;;-0.15;100.00;100602.19;4977682;28;20079;-62
2022/01/15 10:52:12;;;;;;;18.92;9.73;;;;;;;-0.26;100.00;100604.94;4975607;28;20050;-61
2022/01/15 10:54:53;;;;;;;15.93;8.57;;;;;;;-0.30;100.00;100601.75;4979492;28;20384;-61
2022/01/15 10:57:22;;;;;;;19.25;10.93;;;;;;;-0.18;100.00;100602.44;4980080;28;20043;-62
2022/01/15 11:00:05;;;;;;;19.27;9.90;;;;;;;-0.05;100.00;100592.44;4981578;28;20458;-62
2022/01/15 11:02:30;;;;;;;17.88;9.25;;;;;;;0.07;100.00;100590.47;4982013;28;20046;-62
2022/01/15 11:04:56;;;;;;;16.48;9.60;;;;;;;0.08;100.00;100593.97;4982131;28;20491;-62
2022/01/15 11:07:22;;;;;;;16.95;9.00;;;;;;;-0.17;100.00;100582.19;4972660;28;20556;-61
2022/01/15 11:09:50;;;;;;;15.68;8.32;;;;;;;0.15;100.00;100577.44;4961128;28;20030;-62
2022/01/15 11:12:16;;;;;;;15.85;7.65;;;;;;;0.10;100.00;100579.66;4977062;28;20042;-62
2022/01/15 11:14:42;;;;;;;14.65;7.95;;;;;;;0.06;100.00;100575.66;4974856;28;20765;-62
2022/01/15 11:17:07;;;;;;;17.92;9.52;;;;;;;-0.12;100.00;100572.06;4961648;28;20035;-61
2022/01/15 11:19:33;;;;;;;14.25;8.48;;;;;;;-0.12;100.00;100572.06;4962562;28;20027;-61
2022/01/15 11:21:59;;;;;;;20.23;9.65;;;;;;;0.15;100.00;100566.88;4988505;28;20527;-62
2022/01/15 11:24:25;;;;;;;24.33;12.70;;;;;;;0.34;100.00;100570.44;4976986;28;20030;-62
2022/01/15 11:26:57;;;;;;;16.95;9.30;;;;;;;0.21;100.00;100565.47;4980256;28;20034;-62
2022/01/15 11:29:23;;;;;;;15.73;9.68;;;;;;;0.11;100.00;100557.59;4979273;28;20034;-61